Time;durP1;ratioP1;P1;durP2;ratioP2;P2;SDS_P1;SDS_P2;PMS_P1;PMS_P2;Temp;Humidity;BMP_temperature;BMP_pressure;BME280_temperature;BME280_humidity;BME280_pressure;Samples;Min_cycle;Max_cycle;Signal;HPM_P1;HPM_P2
2023/12/24 00:01:23;;;;;;;3.78;1.77;;;;;;;21.09;38.13;100432.88;4623746;31;20412;-65
2023/12/24 00:03:50;;;;;;;4.43;1.85;;;;;;;21.10;38.54;100437.25;4627495;31;20048;-68
2023/12/24 00:06:18;;;;;;;4.85;2.17;;;;;;;21.11;38.14;100448.88;4628633;31;20071;-65
2023/12/24 00:08:45;;;;;;;3.60;1.58;;;;;;;21.11;37.99;100430.03;4629506;31;20067;-64
2023/12/24 00:11:12;;;;;;;4.05;1.67;;;;;;;21.11;37.85;100440.81;4614558;31;20059;-63
2023/12/24 00:13:40;;;;;;;3.83;1.88;;;;;;;21.10;37.87;100437.25;4622126;31;20063;-65
2023/12/24 00:16:07;;;;;;;3.47;1.77;;;;;;;21.10;37.78;100437.25;4625576;31;20059;-65
2023/12/24 00:18:36;;;;;;;3.58;1.77;;;;;;;21.09;37.71;100442.81;4628762;31;20062;-58
2023/12/24 00:21:03;;;;;;;4.25;1.80;;;;;;;21.08;37.77;100433.88;4623451;31;20055;-58
2023/12/24 00:23:31;;;;;;;2.63;1.60;;;;;;;21.09;37.76;100438.25;4623439;31;20047;-58
2023/12/24 00:25:58;;;;;;;3.85;1.80;;;;;;;21.09;37.79;100449.03;4628810;31;20059;-65
2023/12/24 00:28:26;;;;;;;3.53;1.88;;;;;;;21.09;37.98;100450.88;4625652;31;20059;-58
2023/12/24 00:30:54;;;;;;;3.22;1.58;;;;;;;21.08;38.10;100439.25;4629274;31;20082;-67
2023/12/24 00:33:21;;;;;;;3.70;1.70;;;;;;;21.09;38.22;100451.72;4622044;31;20063;-67
2023/12/24 00:35:49;;;;;;;6.90;2.28;;;;;;;21.08;38.26;100452.72;4628482;31;20170;-66
2023/12/24 00:38:16;;;;;;;3.40;1.85;;;;;;;21.08;38.16;100455.41;4628849;31;20059;-67
2023/12/24 00:40:44;;;;;;;3.53;2.10;;;;;;;21.07;37.91;100453.72;4628018;31;20063;-67
2023/12/24 00:43:11;;;;;;;5.03;2.25;;;;;;;21.08;38.04;100438.41;4625686;31;20066;-67
2023/12/24 00:45:39;;;;;;;2.92;1.55;;;;;;;21.07;38.36;100447.50;4627353;31;20408;-67
2023/12/24 00:48:07;;;;;;;3.47;1.98;;;;;;;21.07;38.34;100437.56;4628113;31;20059;-58
2023/12/24 00:50:35;;;;;;;3.88;1.85;;;;;;;21.07;38.15;100448.34;4627060;31;20060;-58
2023/12/24 00:53:03;;;;;;;3.60;1.88;;;;;;;21.07;38.11;100447.50;4625700;31;20063;-58
2023/12/24 00:55:32;;;;;;;4.40;2.40;;;;;;;21.06;38.09;100452.00;4628160;31;20062;-58
2023/12/24 00:57:59;;;;;;;3.63;1.80;;;;;;;21.04;38.04;100459.41;4629162;31;20062;-57
2023/12/24 01:00:26;;;;;;;3.15;1.67;;;;;;;21.04;38.23;100454.03;4641079;30;20070;-58
2023/12/24 01:02:54;;;;;;;4.05;1.60;;;;;;;21.04;38.13;100447.81;4626847;31;20404;-58
2023/12/24 01:05:21;;;;;;;3.00;1.85;;;;;;;21.05;38.07;100449.47;4626460;31;20082;-58
2023/12/24 01:07:49;;;;;;;3.65;1.58;;;;;;;21.04;38.08;100450.50;4626995;31;20070;-67
2023/12/24 01:10:16;;;;;;;3.25;1.92;;;;;;;21.04;38.19;100463.94;4621763;31;20079;-66
2023/12/24 01:12:44;;;;;;;2.47;1.38;;;;;;;21.03;38.18;100460.41;4604000;31;20055;-67
2023/12/24 01:15:11;;;;;;;3.10;1.70;;;;;;;21.02;38.07;100450.63;4606636;31;20071;-66
2023/12/24 01:17:39;;;;;;;4.43;1.90;;;;;;;21.02;37.99;100463.25;4614782;31;20051;-67
2023/12/24 01:20:14;;;;;;;3.97;1.98;;;;;;;21.03;38.06;100454.19;4617773;31;20047;-66
2023/12/24 01:22:42;;;;;;;3.15;1.70;;;;;;;21.03;38.07;100459.56;4620130;31;20078;-66
2023/12/24 01:25:09;;;;;;;3.80;1.80;;;;;;;21.01;37.96;100464.25;4608302;31;20147;-67
2023/12/24 01:27:37;;;;;;;2.97;1.73;;;;;;;21.01;37.93;100472.31;4617752;31;20067;-58
2023/12/24 01:30:05;;;;;;;3.55;1.75;;;;;;;21.01;38.03;100462.41;4616371;31;20063;-58
2023/12/24 01:32:33;;;;;;;2.38;1.40;;;;;;;21.01;38.05;100473.16;4636251;30;20074;-58
2023/12/24 01:35:01;;;;;;;3.63;1.92;;;;;;;21.01;38.06;100469.63;4623427;30;20067;-58
2023/12/24 01:37:28;;;;;;;4.25;2.05;;;;;;;21.01;38.02;100466.94;4617843;31;20068;-58
2023/12/24 01:39:55;;;;;;;3.28;1.80;;;;;;;20.99;37.91;100467.94;4620616;31;20060;-58
2023/12/24 01:42:23;;;;;;;5.00;2.15;;;;;;;21.00;37.87;100463.41;4623567;31;20067;-58
2023/12/24 01:44:51;;;;;;;3.40;1.90;;;;;;;20.99;37.84;100467.09;4620445;31;20047;-58
2023/12/24 01:47:18;;;;;;;3.38;1.70;;;;;;;20.98;38.04;100460.88;4620243;31;20067;-67
2023/12/24 01:49:48;;;;;;;3.92;1.98;;;;;;;20.99;38.02;100475.16;4620348;31;20063;-66
2023/12/24 01:52:16;;;;;;;4.85;1.98;;;;;;;20.98;38.08;100476.16;4617971;31;20066;-66
2023/12/24 01:54:47;;;;;;;4.32;1.90;;;;;;;20.97;37.76;100482.53;4610796;31;20059;-67
2023/12/24 01:57:15;;;;;;;3.65;1.83;;;;;;;20.97;37.93;100469.91;4618941;31;20081;-58
2023/12/24 01:59:43;;;;;;;3.30;1.83;;;;;;;20.97;37.85;100475.31;4633406;30;20064;-58
2023/12/24 02:02:12;;;;;;;2.83;1.88;;;;;;;20.96;37.94;100473.63;4620833;31;20070;-58
2023/12/24 02:04:40;;;;;;;5.68;2.08;;;;;;;20.97;37.82;100475.31;4618299;31;20059;-58
2023/12/24 02:07:10;;;;;;;4.82;2.00;;;;;;;20.96;37.96;100472.78;4630056;30;20055;-57
2023/12/24 02:09:39;;;;;;;4.45;2.35;;;;;;;20.96;37.75;100473.63;4630776;30;20063;-58
2023/12/24 02:12:07;;;;;;;3.30;1.60;;;;;;;20.97;37.84;100486.06;4620267;31;20059;-57
2023/12/24 02:14:34;;;;;;;3.45;2.35;;;;;;;20.96;37.86;100480.84;4602983;31;20052;-58
2023/12/24 02:17:04;;;;;;;3.30;1.90;;;;;;;20.96;37.78;100476.31;4616992;31;20073;-58
2023/12/24 02:19:31;;;;;;;5.03;2.03;;;;;;;20.95;37.81;100466.56;4619707;31;20067;-58
2023/12/24 02:21:59;;;;;;;3.45;2.10;;;;;;;20.96;37.78;100468.22;4633236;30;20067;-58
2023/12/24 02:24:26;;;;;;;3.92;1.73;;;;;;;20.95;37.98;100463.84;4618373;31;20536;-58
2023/12/24 02:27:04;;;;;;;4.00;2.00;;;;;;;20.95;37.79;100471.94;4618347;31;20063;-58
2023/12/24 02:29:40;;;;;;;3.95;2.50;;;;;;;20.94;37.76;100466.69;4622299;31;20405;-58
2023/12/24 02:32:13;;;;;;;3.13;1.90;;;;;;;20.94;37.93;100464.00;4623155;30;20535;-58
2023/12/24 02:34:43;;;;;;;4.07;1.75;;;;;;;20.93;38.01;100465.84;4617698;31;20390;-58
2023/12/24 02:37:11;;;;;;;3.83;2.10;;;;;;;20.94;37.99;100480.13;4619670;31;20543;-58
2023/12/24 02:39:39;;;;;;;4.05;2.15;;;;;;;20.94;38.20;100474.75;4620409;31;20059;-58
2023/12/24 02:42:06;;;;;;;3.13;2.10;;;;;;;20.93;37.98;100478.44;4617949;31;20059;-66
2023/12/24 02:44:38;;;;;;;5.07;2.25;;;;;;;20.93;37.86;100478.44;4632085;30;20075;-67
2023/12/24 02:47:06;;;;;;;5.35;2.40;;;;;;;20.93;37.72;100473.06;4621443;31;20067;-58
2023/12/24 02:49:33;;;;;;;3.28;1.92;;;;;;;20.92;37.68;100458.78;4619446;31;20062;-58
2023/12/24 02:52:00;;;;;;;3.50;2.28;;;;;;;20.93;37.69;100462.31;4617903;31;20512;-58
2023/12/24 02:54:28;;;;;;;4.82;2.13;;;;;;;20.92;37.74;100466.84;4619765;31;20067;-58
2023/12/24 02:56:55;;;;;;;4.05;2.20;;;;;;;20.92;37.85;100471.38;4619224;31;20075;-56
2023/12/24 02:59:25;;;;;;;3.20;2.15;;;;;;;20.92;37.78;100490.22;4632796;30;20059;-56
2023/12/24 03:01:52;;;;;;;5.05;2.20;;;;;;;20.92;37.51;100487.53;4619436;31;20063;-55
2023/12/24 03:04:20;;;;;;;4.20;2.25;;;;;;;20.91;37.46;100481.31;4618976;31;20067;-56
2023/12/24 03:06:47;;;;;;;3.38;2.13;;;;;;;20.91;37.40;100485.84;4620843;31;20543;-66
2023/12/24 03:09:15;;;;;;;4.32;2.40;;;;;;;20.92;37.30;100492.91;4620416;31;20066;-66
2023/12/24 03:11:42;;;;;;;3.70;2.38;;;;;;;20.91;37.15;100500.13;4619031;31;20047;-66
2023/12/24 03:14:10;;;;;;;4.13;2.47;;;;;;;20.91;37.23;100496.59;4615654;31;20064;-66
2023/12/24 03:16:37;;;;;;;4.68;2.55;;;;;;;20.90;37.21;100505.66;4629486;30;20051;-66
2023/12/24 03:19:05;;;;;;;3.17;1.95;;;;;;;20.90;37.13;100501.16;4632073;30;20115;-66
2023/12/24 03:21:32;;;;;;;4.03;2.38;;;;;;;20.91;37.40;100502.00;4619247;31;20064;-66
2023/12/24 03:23:59;;;;;;;5.38;2.50;;;;;;;20.90;37.38;100514.59;4619652;31;20067;-66
2023/12/24 03:26:27;;;;;;;4.15;2.53;;;;;;;20.89;37.36;100520.13;4633532;30;20067;-66
2023/12/24 03:28:54;;;;;;;4.22;2.03;;;;;;;20.90;37.28;100511.03;4618974;31;20527;-66
2023/12/24 03:31:25;;;;;;;4.18;2.40;;;;;;;20.89;37.14;100526.34;4619030;31;20064;-66
2023/12/24 03:33:53;;;;;;;3.78;2.15;;;;;;;20.88;37.11;100521.97;4617353;31;20067;-66
2023/12/24 03:36:21;;;;;;;3.70;2.35;;;;;;;20.89;37.27;100530.88;4619423;31;20096;-57
2023/12/24 03:38:48;;;;;;;4.95;1.95;;;;;;;20.88;37.14;100535.41;4632528;30;20523;-57
2023/12/24 03:41:16;;;;;;;4.07;2.20;;;;;;;20.89;37.19;100512.03;4618562;31;20119;-58
2023/12/24 03:43:43;;;;;;;4.72;1.95;;;;;;;20.89;37.12;100509.34;4618767;31;20067;-57
2023/12/24 03:46:11;;;;;;;4.50;2.50;;;;;;;20.88;37.19;100511.19;4632954;30;20064;-58
2023/12/24 03:48:38;;;;;;;3.90;2.15;;;;;;;20.89;37.29;100525.50;4618928;31;20532;-57
2023/12/24 03:51:06;;;;;;;3.53;2.17;;;;;;;20.89;37.36;100533.56;4618816;31;20078;-57
2023/12/24 03:53:34;;;;;;;4.78;2.35;;;;;;;20.89;37.46;100536.25;4617749;31;20059;-57
2023/12/24 03:56:02;;;;;;;3.53;2.17;;;;;;;20.88;37.32;100537.25;4620847;31;20056;-66
2023/12/24 03:58:30;;;;;;;3.42;2.17;;;;;;;20.88;37.46;100535.41;4618624;31;20067;-66
2023/12/24 04:00:57;;;;;;;4.13;2.17;;;;;;;20.87;37.32;100532.88;4618680;31;20063;-67
2023/12/24 04:03:24;;;;;;;3.65;2.15;;;;;;;20.86;37.43;100541.94;4618411;31;20055;-66
2023/12/24 04:05:52;;;;;;;4.07;2.53;;;;;;;20.87;37.35;100546.34;4620337;31;20524;-66
2023/12/24 04:08:20;;;;;;;3.55;1.90;;;;;;;20.87;37.50;100554.41;4630773;30;20087;-66
2023/12/24 04:10:47;;;;;;;3.25;2.40;;;;;;;20.87;37.58;100570.56;4631009;30;20527;-66
2023/12/24 04:13:14;;;;;;;3.63;2.35;;;;;;;20.87;37.44;100562.47;4617997;31;20063;-66
2023/12/24 04:15:42;;;;;;;4.32;2.08;;;;;;;20.86;37.22;100556.22;4610691;31;20402;-66
2023/12/24 04:18:09;;;;;;;3.92;2.17;;;;;;;20.86;37.43;100550.84;4608647;31;20060;-57
2023/12/24 04:20:38;;;;;;;3.17;1.95;;;;;;;20.86;37.47;100563.44;4616373;31;20078;-57
2023/12/24 04:23:06;;;;;;;3.95;1.83;;;;;;;20.86;37.45;100574.22;4616186;31;20513;-57
2023/12/24 04:25:33;;;;;;;3.72;1.92;;;;;;;20.86;37.49;100582.28;4632919;30;20059;-57
2023/12/24 04:28:01;;;;;;;3.83;2.22;;;;;;;20.85;37.49;100588.66;4616775;31;20060;-66
2023/12/24 04:30:29;;;;;;;5.18;2.55;;;;;;;20.85;37.42;100594.91;4616554;31;20060;-66
2023/12/24 04:33:02;;;;;;;3.70;2.20;;;;;;;20.85;37.60;100591.38;4630740;30;20071;-66
2023/12/24 04:35:30;;;;;;;3.30;2.20;;;;;;;20.84;37.51;100603.13;4622540;31;20063;-66
2023/12/24 04:38:00;;;;;;;4.85;2.20;;;;;;;20.84;37.50;100600.44;4609241;31;20067;-66
2023/12/24 04:40:27;;;;;;;3.20;2.40;;;;;;;20.84;37.60;100603.97;4616541;31;20071;-66
2023/12/24 04:42:55;;;;;;;4.78;2.13;;;;;;;20.84;37.47;100605.81;4630950;30;20433;-66
2023/12/24 04:45:22;;;;;;;4.28;2.10;;;;;;;20.83;37.45;100602.28;4609536;31;20427;-66
2023/12/24 04:47:53;;;;;;;3.97;1.92;;;;;;;20.83;37.56;100617.59;4605931;31;20067;-57
2023/12/24 04:50:20;;;;;;;4.88;2.20;;;;;;;20.83;37.61;100622.97;4603800;31;20394;-57
2023/12/24 04:52:48;;;;;;;3.42;2.20;;;;;;;20.81;37.44;100623.09;4627941;30;20060;-57
2023/12/24 04:55:16;;;;;;;5.20;2.30;;;;;;;20.83;37.44;100622.97;4608939;31;20081;-57
2023/12/24 04:57:43;;;;;;;3.28;2.20;;;;;;;20.83;37.54;100617.59;4603791;31;20056;-57
2023/12/24 05:00:11;;;;;;;3.67;2.17;;;;;;;20.83;37.67;100629.19;4617883;30;20068;-57
2023/12/24 05:02:39;;;;;;;3.47;2.03;;;;;;;20.83;37.77;100625.66;4619094;30;20064;-57
2023/12/24 05:05:06;;;;;;;3.35;2.00;;;;;;;20.83;37.70;100628.34;4609614;31;20063;-57
2023/12/24 05:07:34;;;;;;;2.50;1.80;;;;;;;20.84;37.78;100632.72;4607016;31;20424;-66
2023/12/24 05:10:02;;;;;;;4.38;2.53;;;;;;;20.83;37.86;100620.28;4617396;31;20060;-66
2023/12/24 05:12:29;;;;;;;2.88;1.75;;;;;;;20.84;37.78;100625.50;4616987;31;20060;-66
2023/12/24 05:14:59;;;;;;;4.93;2.35;;;;;;;20.85;37.96;100637.09;4631218;30;20063;-66
2023/12/24 05:17:28;;;;;;;3.30;1.88;;;;;;;20.85;37.83;100634.41;4604841;31;20154;-57
2023/12/24 05:19:56;;;;;;;3.35;2.50;;;;;;;20.86;37.73;100626.19;4603895;31;20064;-57
2023/12/24 05:22:23;;;;;;;5.93;2.28;;;;;;;20.85;37.72;100632.56;4616876;31;20056;-57
2023/12/24 05:24:51;;;;;;;4.15;2.20;;;;;;;20.85;37.78;100646.03;4618751;31;20052;-57
2023/12/24 05:27:18;;;;;;;3.63;2.08;;;;;;;20.85;37.71;100642.47;4617353;31;20755;-66
2023/12/24 05:29:45;;;;;;;4.72;2.15;;;;;;;20.85;37.59;100645.19;4617706;31;20059;-66
2023/12/24 05:32:13;;;;;;;3.83;2.17;;;;;;;20.85;37.66;100642.47;4618772;31;20402;-66
2023/12/24 05:34:40;;;;;;;3.15;1.95;;;;;;;20.84;37.56;100647.03;4619067;31;20492;-66
2023/12/24 05:37:08;;;;;;;3.67;2.20;;;;;;;20.84;37.65;100648.88;4608370;31;20056;-57
2023/12/24 05:39:35;;;;;;;3.30;2.00;;;;;;;20.84;37.62;100652.41;4617232;31;20060;-57
2023/12/24 05:42:02;;;;;;;3.88;2.15;;;;;;;20.84;37.61;100659.63;4618031;31;20060;-57
2023/12/24 05:44:30;;;;;;;3.75;1.88;;;;;;;20.84;37.46;100656.94;4619116;31;20400;-57
2023/12/24 05:46:57;;;;;;;4.70;2.03;;;;;;;20.84;37.63;100665.00;4608861;31;20524;-57
2023/12/24 05:49:24;;;;;;;3.58;1.98;;;;;;;20.83;37.56;100664.16;4617423;31;20505;-57
2023/12/24 05:51:52;;;;;;;4.03;2.13;;;;;;;20.83;37.59;100663.31;4618313;31;20051;-57
2023/12/24 05:54:19;;;;;;;3.72;2.17;;;;;;;20.82;37.44;100669.69;4608330;31;20066;-57
2023/12/24 05:56:47;;;;;;;3.58;2.08;;;;;;;20.83;37.57;100674.94;4613129;31;20412;-65
2023/12/24 05:59:14;;;;;;;3.50;1.95;;;;;;;20.82;37.54;100672.38;4617669;31;20083;-66
2023/12/24 06:01:43;;;;;;;3.60;2.10;;;;;;;20.82;37.54;100683.13;4617794;31;20428;-66
2023/12/24 06:04:10;;;;;;;3.88;2.22;;;;;;;20.82;37.56;100691.19;4618360;31;20059;-66
2023/12/24 06:06:41;;;;;;;3.70;1.83;;;;;;;20.83;37.46;100692.91;4608372;31;20075;-66
2023/12/24 06:09:09;;;;;;;3.15;1.83;;;;;;;20.82;37.51;100697.44;4617396;31;20081;-65
2023/12/24 06:11:36;;;;;;;4.32;1.80;;;;;;;20.81;37.50;100694.88;4618529;31;20398;-65
2023/12/24 06:14:04;;;;;;;3.25;2.03;;;;;;;20.81;37.56;100705.66;4618024;31;20539;-68
2023/12/24 06:16:31;;;;;;;3.35;2.28;;;;;;;20.79;37.59;100697.75;4614067;31;20044;-57
2023/12/24 06:18:59;;;;;;;3.22;2.10;;;;;;;20.81;37.42;100697.59;4602992;31;20417;-57
2023/12/24 06:21:26;;;;;;;3.33;2.17;;;;;;;20.80;37.45;100704.81;4619761;31;20059;-57
2023/12/24 06:23:54;;;;;;;3.30;2.05;;;;;;;20.81;37.38;100700.28;4621480;31;20063;-58
2023/12/24 06:26:21;;;;;;;3.88;2.42;;;;;;;20.79;37.39;100700.44;4619877;31;20465;-65
2023/12/24 06:28:48;;;;;;;3.20;1.92;;;;;;;20.80;37.47;100701.28;4620198;31;20059;-65
2023/12/24 06:31:21;;;;;;;3.38;1.70;;;;;;;20.79;37.42;100688.81;4621339;31;20060;-67
2023/12/24 06:33:51;;;;;;;3.20;1.80;;;;;;;20.79;37.48;100705.81;4620926;31;20067;-67
2023/12/24 06:36:19;;;;;;;4.25;2.13;;;;;;;20.79;37.48;100704.97;4619540;31;20500;-67
2023/12/24 06:38:46;;;;;;;3.67;1.88;;;;;;;20.78;37.37;100701.41;4619548;31;20055;-66
2023/12/24 06:41:13;;;;;;;3.00;1.95;;;;;;;20.78;37.44;100695.16;4621961;31;20067;-66
2023/12/24 06:43:41;;;;;;;3.10;2.03;;;;;;;20.77;37.53;100713.16;4619773;31;20055;-66
2023/12/24 06:46:12;;;;;;;3.60;2.05;;;;;;;20.76;37.50;100708.78;4619333;31;20064;-64
2023/12/24 06:48:40;;;;;;;3.97;2.08;;;;;;;20.78;37.33;100727.47;4619565;31;20409;-57
2023/12/24 06:51:08;;;;;;;3.63;2.10;;;;;;;20.76;37.50;100708.78;4622086;31;20055;-57
2023/12/24 06:53:36;;;;;;;3.28;2.00;;;;;;;20.76;37.42;100711.47;4617698;31;20060;-57
2023/12/24 06:56:04;;;;;;;4.45;2.00;;;;;;;20.74;37.45;100711.63;4619269;31;20060;-62
2023/12/24 06:58:31;;;;;;;3.33;2.03;;;;;;;20.75;37.32;100720.53;4619859;31;20051;-57
2023/12/24 07:00:59;;;;;;;4.28;2.17;;;;;;;20.74;37.28;100735.84;4622073;30;20066;-57
2023/12/24 07:03:26;;;;;;;3.55;2.10;;;;;;;20.74;37.36;100738.53;4619262;31;20060;-57
2023/12/24 07:05:54;;;;;;;3.40;2.33;;;;;;;20.74;37.38;100734.97;4619834;31;20059;-57
2023/12/24 07:08:24;;;;;;;4.63;2.30;;;;;;;20.73;37.32;100725.19;4619429;31;20416;-56
2023/12/24 07:10:52;;;;;;;3.20;1.92;;;;;;;20.74;37.27;100716.13;4618155;31;20055;-57
2023/12/24 07:13:19;;;;;;;4.80;2.15;;;;;;;20.74;37.23;100726.88;4619542;31;20059;-58
2023/12/24 07:15:46;;;;;;;4.50;2.10;;;;;;;20.74;37.31;100735.84;4618952;31;20058;-57
2023/12/24 07:18:14;;;;;;;4.22;1.98;;;;;;;20.73;37.33;100736.81;4608992;31;20048;-66
2023/12/24 07:20:41;;;;;;;3.80;2.20;;;;;;;20.72;37.24;100740.50;4609224;31;20054;-65
2023/12/24 07:23:09;;;;;;;3.05;1.85;;;;;;;20.72;37.38;100729.75;4618932;31;20070;-66
2023/12/24 07:25:36;;;;;;;3.42;1.77;;;;;;;20.73;37.21;100738.66;4619408;31;20055;-66
2023/12/24 07:28:04;;;;;;;4.13;2.28;;;;;;;20.73;37.25;100734.13;4617826;31;20059;-57
2023/12/24 07:30:31;;;;;;;4.53;2.60;;;;;;;20.73;37.35;100720.66;4621539;31;20504;-58
2023/12/24 07:32:59;;;;;;;4.40;1.92;;;;;;;20.73;37.25;100739.50;4618827;31;20206;-58
2023/12/24 07:35:27;;;;;;;4.20;2.13;;;;;;;20.73;37.31;100758.31;4618626;31;20056;-57
2023/12/24 07:37:54;;;;;;;5.30;2.08;;;;;;;20.73;37.28;100760.19;4618873;31;20505;-57
2023/12/24 07:40:22;;;;;;;3.67;2.13;;;;;;;20.73;37.28;100774.47;4617911;31;20059;-57
2023/12/24 07:42:49;;;;;;;3.78;2.03;;;;;;;20.72;37.25;100772.78;4618875;31;20063;-57
2023/12/24 07:45:19;;;;;;;4.25;2.50;;;;;;;20.73;37.31;100771.78;4618566;31;20429;-57
2023/12/24 07:47:46;;;;;;;3.15;2.00;;;;;;;20.74;37.25;100778.00;4619033;31;20055;-66
2023/12/24 07:50:14;;;;;;;3.92;2.20;;;;;;;20.74;37.11;100773.50;4621120;31;20055;-66
2023/12/24 07:52:41;;;;;;;3.70;2.55;;;;;;;20.73;37.17;100785.22;4618399;31;20055;-66
2023/12/24 07:55:08;;;;;;;3.20;1.85;;;;;;;20.73;37.14;100787.91;4618714;31;20060;-66
2023/12/24 07:57:36;;;;;;;3.42;2.45;;;;;;;20.73;37.09;100795.16;4618240;31;20052;-57
2023/12/24 08:00:06;;;;;;;3.13;2.10;;;;;;;20.72;37.06;100801.53;4621358;31;20062;-56
2023/12/24 08:02:38;;;;;;;3.20;2.00;;;;;;;20.73;37.28;100805.91;4623824;30;20071;-57
2023/12/24 08:05:06;;;;;;;3.50;2.28;;;;;;;20.74;37.36;100805.78;4618730;31;20078;-56
2023/12/24 08:07:34;;;;;;;4.90;2.28;;;;;;;20.75;37.14;100812.00;4619368;31;20059;-66
2023/12/24 08:10:01;;;;;;;6.18;2.30;;;;;;;20.74;37.16;100812.97;4621222;31;20058;-66
2023/12/24 08:12:29;;;;;;;5.72;2.58;;;;;;;20.76;37.26;100816.41;4618655;31;20060;-64
2023/12/24 08:14:56;;;;;;;4.03;2.22;;;;;;;20.78;37.15;100818.94;4618489;31;20082;-66
2023/12/24 08:17:23;;;;;;;5.93;2.70;;;;;;;20.79;37.29;100812.59;4619046;31;20052;-65
2023/12/24 08:19:51;;;;;;;5.43;2.38;;;;;;;20.82;37.15;100825.72;4604645;31;20577;-66
2023/12/24 08:22:19;;;;;;;4.05;2.38;;;;;;;20.83;37.24;100822.06;4609326;31;20083;-66
2023/12/24 08:24:48;;;;;;;4.07;2.47;;;;;;;20.85;37.32;100838.91;4620197;31;20067;-65
2023/12/24 08:27:15;;;;;;;4.82;2.88;;;;;;;20.86;37.32;100844.13;4619295;31;20064;-66
2023/12/24 08:29:43;;;;;;;4.82;2.88;;;;;;;20.89;37.29;100853.78;4619780;31;20062;-67
2023/12/24 08:32:11;;;;;;;5.22;2.53;;;;;;;20.90;37.23;100855.47;4618287;31;20051;-65
2023/12/24 08:34:38;;;;;;;5.10;3.15;;;;;;;20.91;37.62;100867.97;4630529;30;20063;-69
2023/12/24 08:37:06;;;;;;;5.03;2.67;;;;;;;20.93;37.73;100876.72;4618264;31;20075;-68
2023/12/24 08:39:33;;;;;;;5.38;2.80;;;;;;;20.93;37.67;100868.66;4619927;31;20500;-68
2023/12/24 08:42:00;;;;;;;4.30;2.70;;;;;;;20.93;37.57;100880.25;4617666;31;20059;-68
2023/12/24 08:44:28;;;;;;;6.80;2.97;;;;;;;20.94;37.28;100884.69;4617974;31;20059;-68
2023/12/24 08:46:55;;;;;;;4.95;3.83;;;;;;;20.96;36.79;100900.66;4618798;31;20078;-66
2023/12/24 08:49:23;;;;;;;5.35;2.67;;;;;;;20.94;36.83;100890.06;4618856;31;20106;-66
2023/12/24 08:51:51;;;;;;;5.15;3.58;;;;;;;20.95;36.69;100901.66;4617337;31;20058;-65
2023/12/24 08:54:18;;;;;;;5.53;3.42;;;;;;;20.94;36.39;100910.72;4617954;31;20059;-66
2023/12/24 08:56:45;;;;;;;7.10;3.35;;;;;;;20.93;36.67;100903.63;4618618;31;20064;-58
2023/12/24 08:59:13;;;;;;;8.38;3.85;;;;;;;20.94;36.56;100914.28;4618864;31;20062;-59
2023/12/24 09:01:41;;;;;;;8.82;3.63;;;;;;;20.94;36.98;100911.59;4617612;31;20060;-58
2023/12/24 09:04:08;;;;;;;5.82;3.17;;;;;;;20.97;37.24;100915.81;4617839;31;20067;-58
2023/12/24 09:06:37;;;;;;;7.95;3.63;;;;;;;20.97;37.07;100910.44;4618202;31;20059;-67
2023/12/24 09:09:05;;;;;;;6.90;3.08;;;;;;;20.97;36.70;100910.44;4630988;30;20063;-68
2023/12/24 09:11:32;;;;;;;5.97;3.63;;;;;;;20.96;36.59;100919.50;4617967;31;20416;-65
2023/12/24 09:14:00;;;;;;;4.97;3.25;;;;;;;20.97;36.85;100924.75;4618053;31;20063;-65
2023/12/24 09:16:28;;;;;;;5.03;3.08;;;;;;;20.98;36.93;100931.84;4631659;30;20051;-59
2023/12/24 09:18:55;;;;;;;5.47;3.22;;;;;;;21.04;37.20;100937.66;4619352;31;20392;-58
2023/12/24 09:21:22;;;;;;;5.20;3.08;;;;;;;21.05;37.21;100936.66;4599661;31;20044;-57
2023/12/24 09:23:50;;;;;;;5.10;2.83;;;;;;;21.07;37.19;100932.84;4612429;31;20067;-60
2023/12/24 09:26:20;;;;;;;5.65;2.88;;;;;;;21.06;37.57;100932.97;4618275;31;20062;-59
2023/12/24 09:28:48;;;;;;;5.65;3.15;;;;;;;21.08;37.69;100939.06;4618671;31;20059;-59
2023/12/24 09:31:15;;;;;;;6.75;3.30;;;;;;;21.06;37.89;100947.25;4617585;31;20416;-59
2023/12/24 09:33:42;;;;;;;4.97;3.45;;;;;;;21.07;37.96;100943.59;4617283;31;20527;-59
2023/12/24 09:36:10;;;;;;;4.10;2.70;;;;;;;21.08;37.88;100945.31;4618875;31;20059;-61
2023/12/24 09:38:38;;;;;;;4.28;2.90;;;;;;;21.08;38.01;100939.91;4618509;31;20501;-60
2023/12/24 09:41:06;;;;;;;5.25;3.08;;;;;;;21.10;37.90;100942.47;4617072;31;20079;-58
2023/12/24 09:43:37;;;;;;;4.90;2.95;;;;;;;21.08;38.06;100950.69;4617408;31;20412;-60
2023/12/24 09:46:05;;;;;;;5.20;3.15;;;;;;;21.08;37.99;100956.06;4619762;31;20531;-60
2023/12/24 09:48:34;;;;;;;5.55;2.88;;;;;;;21.09;37.95;100956.91;4617221;31;20067;-61
2023/12/24 09:51:02;;;;;;;5.40;3.05;;;;;;;21.08;37.87;100948.00;4617417;31;20051;-61
2023/12/24 09:53:31;;;;;;;6.22;3.40;;;;;;;21.08;37.96;100950.69;4623168;31;20048;-61
2023/12/24 09:56:02;;;;;;;5.60;2.50;;;;;;;21.08;37.85;100952.53;4623063;31;20067;-60
2023/12/24 09:58:30;;;;;;;4.82;3.47;;;;;;;21.08;37.88;100955.22;4620097;31;20428;-60
2023/12/24 10:00:57;;;;;;;5.43;2.97;;;;;;;21.08;37.95;100952.53;4620535;31;20058;-60
2023/12/24 10:03:25;;;;;;;3.83;2.25;;;;;;;21.07;37.96;100951.69;4620144;31;20501;-60
2023/12/24 10:06:03;;;;;;;4.80;2.70;;;;;;;21.06;37.96;100949.97;4622801;31;20055;-59
2023/12/24 10:08:31;;;;;;;5.63;2.45;;;;;;;21.07;37.79;100940.91;4620198;31;20059;-60
2023/12/24 10:11:25;;;;;;;5.85;2.78;;;;;;;21.07;37.83;100929.31;4619978;31;20063;-59
2023/12/24 10:13:59;;;;;;;4.05;2.65;;;;;;;21.06;37.74;100931.13;4620301;31;20067;-59
2023/12/24 10:16:27;;;;;;;4.45;2.85;;;;;;;21.07;37.86;100940.06;4620064;31;20127;-60
2023/12/24 10:18:55;;;;;;;4.28;2.85;;;;;;;21.06;37.94;100935.66;4620567;31;20412;-60
2023/12/24 10:21:23;;;;;;;5.38;3.08;;;;;;;21.05;37.85;100934.81;4611672;31;20083;-60
2023/12/24 10:23:50;;;;;;;4.53;2.67;;;;;;;21.06;37.83;100938.34;4608664;31;20420;-60
2023/12/24 10:26:20;;;;;;;3.95;2.60;;;;;;;21.05;37.79;100924.03;4632839;30;20058;-60
2023/12/24 10:28:50;;;;;;;5.30;3.03;;;;;;;21.05;37.87;100920.50;4619983;31;20059;-60
2023/12/24 10:31:27;;;;;;;4.80;2.55;;;;;;;21.04;37.75;100933.13;4619618;31;20055;-61
2023/12/24 10:34:01;;;;;;;3.90;2.75;;;;;;;21.04;37.84;100924.19;4620008;31;20059;-58
2023/12/24 10:36:29;;;;;;;6.75;2.42;;;;;;;21.03;37.85;100934.13;4619374;31;20064;-62
2023/12/24 10:38:57;;;;;;;5.45;2.78;;;;;;;21.05;37.81;100912.44;4620340;31;20060;-61
2023/12/24 10:41:24;;;;;;;4.47;2.65;;;;;;;21.04;37.85;100910.72;4621906;31;20067;-61
2023/12/24 10:43:52;;;;;;;3.67;2.22;;;;;;;21.04;37.82;100908.88;4619542;31;20519;-61
2023/12/24 10:46:19;;;;;;;4.53;2.45;;;;;;;21.04;37.78;100908.03;4619511;31;20063;-59
2023/12/24 10:48:49;;;;;;;7.20;3.35;;;;;;;21.03;37.85;100904.50;4620390;31;20047;-59
2023/12/24 10:51:17;;;;;;;6.22;2.70;;;;;;;21.03;37.81;100888.34;4621172;31;20077;-60
2023/12/24 10:53:44;;;;;;;4.60;2.13;;;;;;;21.04;37.93;100889.19;4619171;31;20059;-60
2023/12/24 10:56:23;;;;;;;3.92;2.50;;;;;;;21.04;37.80;100887.34;4619601;31;20067;-60
2023/12/24 10:59:16;;;;;;;4.53;2.58;;;;;;;21.03;37.83;100888.34;4621142;31;20060;-61
2023/12/24 11:01:48;;;;;;;4.78;2.50;;;;;;;21.03;37.91;100876.75;4618452;31;20059;-61
2023/12/24 11:04:48;;;;;;;3.67;2.47;;;;;;;21.02;37.77;100864.25;4618925;31;20060;-61
2023/12/24 11:07:34;;;;;;;4.85;2.55;;;;;;;21.01;37.76;100858.03;4624368;30;20057;-58
2023/12/24 11:10:03;;;;;;;3.95;2.35;;;;;;;21.00;37.70;100861.72;4619587;31;20052;-60
2023/12/24 11:12:32;;;;;;;4.10;2.05;;;;;;;21.01;37.76;100860.72;4620576;31;20063;-60
2023/12/24 11:15:01;;;;;;;4.90;2.83;;;;;;;21.01;37.67;100865.25;4619596;31;20082;-60
2023/12/24 11:17:38;;;;;;;5.63;2.97;;;;;;;21.00;37.77;100859.03;4619367;31;20063;-59
2023/12/24 11:20:19;;;;;;;5.18;2.20;;;;;;;21.00;37.95;100859.03;4619029;31;20044;-59
2023/12/24 11:23:02;;;;;;;3.10;1.98;;;;;;;20.99;37.76;100852.78;4608681;31;20048;-59
2023/12/24 11:25:41;;;;;;;3.67;2.20;;;;;;;21.00;37.85;100848.25;4612055;31;20060;-60
2023/12/24 11:28:34;;;;;;;4.50;2.17;;;;;;;20.99;37.98;100843.88;4632639;30;20539;-60
2023/12/24 11:31:06;;;;;;;4.32;2.63;;;;;;;20.99;37.91;100850.09;4616723;31;20401;-61